sensor_id;sensor_type;location;lat;lon;timestamp;P1;durP1;ratioP1;P2;durP2;ratioP2
29934;SDS011;19905;53.370;-6.314;2022-12-11T00:01:25;83.45;;;32.25;;
29934;SDS011;19905;53.370;-6.314;2022-12-11T00:03:58;79.18;;;30.40;;
29934;SDS011;19905;53.370;-6.314;2022-12-11T00:06:31;83.25;;;32.30;;
29934;SDS011;19905;53.370;-6.314;2022-12-11T00:11:33;78.18;;;29.95;;
29934;SDS011;19905;53.370;-6.314;2022-12-11T00:14:02;75.57;;;29.15;;
29934;SDS011;19905;53.370;-6.314;2022-12-11T00:16:32;80.32;;;30.15;;
29934;SDS011;19905;53.370;-6.314;2022-12-11T00:19:08;82.78;;;31.15;;
29934;SDS011;19905;53.370;-6.314;2022-12-11T00:21:40;78.30;;;30.38;;
29934;SDS011;19905;53.370;-6.314;2022-12-11T00:24:15;83.00;;;31.20;;
29934;SDS011;19905;53.370;-6.314;2022-12-11T00:26:44;78.32;;;31.20;;
29934;SDS011;19905;53.370;-6.314;2022-12-11T00:29:21;82.63;;;31.23;;
29934;SDS011;19905;53.370;-6.314;2022-12-11T00:31:50;73.38;;;30.00;;
29934;SDS011;19905;53.370;-6.314;2022-12-11T00:37:06;70.13;;;29.55;;
29934;SDS011;19905;53.370;-6.314;2022-12-11T00:39:35;78.57;;;30.63;;
29934;SDS011;19905;53.370;-6.314;2022-12-11T00:42:05;72.65;;;28.38;;
29934;SDS011;19905;53.370;-6.314;2022-12-11T00:44:35;74.55;;;30.80;;
29934;SDS011;19905;53.370;-6.314;2022-12-11T00:47:04;76.70;;;28.75;;
29934;SDS011;19905;53.370;-6.314;2022-12-11T00:49:33;70.60;;;28.75;;
29934;SDS011;19905;53.370;-6.314;2022-12-11T00:52:02;71.75;;;29.13;;
29934;SDS011;19905;53.370;-6.314;2022-12-11T00:54:32;72.93;;;29.20;;
29934;SDS011;19905;53.370;-6.314;2022-12-11T00:57:01;72.82;;;27.52;;
29934;SDS011;19905;53.370;-6.314;2022-12-11T00:59:30;72.38;;;29.38;;
29934;SDS011;19905;53.370;-6.314;2022-12-11T01:02:00;65.45;;;29.80;;
29934;SDS011;19905;53.370;-6.314;2022-12-11T01:04:28;71.65;;;29.45;;
29934;SDS011;19905;53.370;-6.314;2022-12-11T01:06:57;72.47;;;29.25;;
29934;SDS011;19905;53.370;-6.314;2022-12-11T01:09:26;72.32;;;29.40;;
29934;SDS011;19905;53.370;-6.314;2022-12-11T01:12:13;70.47;;;30.05;;
29934;SDS011;19905;53.370;-6.314;2022-12-11T01:14:41;71.35;;;29.15;;
29934;SDS011;19905;53.370;-6.314;2022-12-11T01:17:14;73.57;;;29.90;;
29934;SDS011;19905;53.370;-6.314;2022-12-11T01:19:55;71.93;;;29.48;;
29934;SDS011;19905;53.370;-6.314;2022-12-11T01:22:23;65.55;;;27.15;;
29934;SDS011;19905;53.370;-6.314;2022-12-11T01:25:10;66.32;;;26.30;;
29934;SDS011;19905;53.370;-6.314;2022-12-11T01:27:41;66.10;;;26.65;;
29934;SDS011;19905;53.370;-6.314;2022-12-11T01:30:10;67.43;;;26.27;;
29934;SDS011;19905;53.370;-6.314;2022-12-11T01:32:40;66.97;;;26.80;;
29934;SDS011;19905;53.370;-6.314;2022-12-11T01:35:10;69.47;;;25.90;;
29934;SDS011;19905;53.370;-6.314;2022-12-11T01:37:40;66.35;;;26.80;;
29934;SDS011;19905;53.370;-6.314;2022-12-11T01:40:10;60.15;;;25.40;;
29934;SDS011;19905;53.370;-6.314;2022-12-11T01:42:43;61.58;;;24.70;;
29934;SDS011;19905;53.370;-6.314;2022-12-11T01:45:22;55.30;;;24.25;;
29934;SDS011;19905;53.370;-6.314;2022-12-11T01:48:03;60.88;;;26.45;;
29934;SDS011;19905;53.370;-6.314;2022-12-11T01:51:26;58.88;;;23.83;;
29934;SDS011;19905;53.370;-6.314;2022-12-11T01:53:57;56.35;;;22.35;;
29934;SDS011;19905;53.370;-6.314;2022-12-11T01:56:29;57.08;;;22.17;;
29934;SDS011;19905;53.370;-6.314;2022-12-11T01:59:04;55.83;;;23.42;;
29934;SDS011;19905;53.370;-6.314;2022-12-11T02:01:36;55.03;;;22.77;;
29934;SDS011;19905;53.370;-6.314;2022-12-11T02:04:08;55.33;;;23.13;;
29934;SDS011;19905;53.370;-6.314;2022-12-11T02:06:38;59.70;;;22.67;;
29934;SDS011;19905;53.370;-6.314;2022-12-11T02:09:09;53.83;;;22.33;;
29934;SDS011;19905;53.370;-6.314;2022-12-11T02:11:43;54.58;;;22.83;;
29934;SDS011;19905;53.370;-6.314;2022-12-11T02:14:25;54.03;;;22.83;;
29934;SDS011;19905;53.370;-6.314;2022-12-11T02:17:02;64.03;;;24.83;;
29934;SDS011;19905;53.370;-6.314;2022-12-11T02:19:43;66.93;;;23.20;;
29934;SDS011;19905;53.370;-6.314;2022-12-11T02:22:21;65.25;;;25.92;;
29934;SDS011;19905;53.370;-6.314;2022-12-11T02:25:08;63.50;;;25.02;;
29934;SDS011;19905;53.370;-6.314;2022-12-11T02:27:46;65.13;;;25.63;;
29934;SDS011;19905;53.370;-6.314;2022-12-11T02:30:24;64.88;;;25.40;;
29934;SDS011;19905;53.370;-6.314;2022-12-11T02:32:53;64.35;;;24.83;;
29934;SDS011;19905;53.370;-6.314;2022-12-11T02:35:24;61.78;;;25.10;;
29934;SDS011;19905;53.370;-6.314;2022-12-11T02:38:00;65.68;;;24.63;;
29934;SDS011;19905;53.370;-6.314;2022-12-11T02:40:36;58.85;;;23.13;;
29934;SDS011;19905;53.370;-6.314;2022-12-11T02:43:09;57.97;;;23.60;;
29934;SDS011;19905;53.370;-6.314;2022-12-11T02:45:43;57.72;;;23.23;;
29934;SDS011;19905;53.370;-6.314;2022-12-11T02:48:14;62.38;;;24.10;;
29934;SDS011;19905;53.370;-6.314;2022-12-11T02:50:45;59.85;;;23.92;;
29934;SDS011;19905;53.370;-6.314;2022-12-11T02:53:16;59.35;;;23.42;;
29934;SDS011;19905;53.370;-6.314;2022-12-11T02:55:49;64.03;;;22.50;;
29934;SDS011;19905;53.370;-6.314;2022-12-11T02:58:24;58.38;;;23.38;;
29934;SDS011;19905;53.370;-6.314;2022-12-11T03:00:58;63.13;;;22.75;;
29934;SDS011;19905;53.370;-6.314;2022-12-11T03:03:27;55.50;;;21.92;;
29934;SDS011;19905;53.370;-6.314;2022-12-11T03:05:57;55.45;;;21.80;;
29934;SDS011;19905;53.370;-6.314;2022-12-11T03:08:25;49.35;;;22.23;;
29934;SDS011;19905;53.370;-6.314;2022-12-11T03:10:54;57.42;;;22.23;;
29934;SDS011;19905;53.370;-6.314;2022-12-11T03:13:23;57.50;;;22.67;;
29934;SDS011;19905;53.370;-6.314;2022-12-11T03:15:55;56.88;;;22.38;;
29934;SDS011;19905;53.370;-6.314;2022-12-11T03:18:34;59.28;;;22.27;;
29934;SDS011;19905;53.370;-6.314;2022-12-11T03:21:11;58.63;;;22.00;;
29934;SDS011;19905;53.370;-6.314;2022-12-11T03:23:47;53.15;;;22.10;;
29934;SDS011;19905;53.370;-6.314;2022-12-11T03:26:19;56.90;;;22.05;;
29934;SDS011;19905;53.370;-6.314;2022-12-11T03:28:51;51.47;;;22.05;;
29934;SDS011;19905;53.370;-6.314;2022-12-11T03:31:28;58.72;;;23.55;;
29934;SDS011;19905;53.370;-6.314;2022-12-11T03:34:03;52.70;;;22.90;;
29934;SDS011;19905;53.370;-6.314;2022-12-11T03:36:43;56.70;;;22.67;;
29934;SDS011;19905;53.370;-6.314;2022-12-11T03:39:21;58.65;;;23.17;;
29934;SDS011;19905;53.370;-6.314;2022-12-11T03:41:53;53.78;;;22.67;;
29934;SDS011;19905;53.370;-6.314;2022-12-11T03:44:24;51.63;;;22.83;;
29934;SDS011;19905;53.370;-6.314;2022-12-11T03:46:57;54.88;;;22.77;;
29934;SDS011;19905;53.370;-6.314;2022-12-11T03:49:30;52.90;;;21.80;;
29934;SDS011;19905;53.370;-6.314;2022-12-11T03:52:02;55.35;;;23.30;;
29934;SDS011;19905;53.370;-6.314;2022-12-11T03:54:33;50.70;;;21.45;;
29934;SDS011;19905;53.370;-6.314;2022-12-11T03:57:03;51.67;;;21.40;;
29934;SDS011;19905;53.370;-6.314;2022-12-11T03:59:33;50.88;;;22.08;;
29934;SDS011;19905;53.370;-6.314;2022-12-11T04:02:03;55.83;;;20.70;;
29934;SDS011;19905;53.370;-6.314;2022-12-11T04:04:36;51.03;;;21.73;;
29934;SDS011;19905;53.370;-6.314;2022-12-11T04:07:07;52.83;;;22.20;;
29934;SDS011;19905;53.370;-6.314;2022-12-11T04:09:36;52.50;;;22.45;;
29934;SDS011;19905;53.370;-6.314;2022-12-11T04:12:06;56.40;;;23.08;;
29934;SDS011;19905;53.370;-6.314;2022-12-11T04:14:34;53.05;;;21.30;;
29934;SDS011;19905;53.370;-6.314;2022-12-11T04:17:22;51.80;;;21.65;;
29934;SDS011;19905;53.370;-6.314;2022-12-11T04:20:08;61.75;;;23.40;;
29934;SDS011;19905;53.370;-6.314;2022-12-11T04:22:56;50.15;;;20.60;;
29934;SDS011;19905;53.370;-6.314;2022-12-11T04:25:42;49.42;;;21.75;;
29934;SDS011;19905;53.370;-6.314;2022-12-11T04:28:10;52.10;;;21.08;;
29934;SDS011;19905;53.370;-6.314;2022-12-11T04:30:40;50.58;;;22.17;;
29934;SDS011;19905;53.370;-6.314;2022-12-11T04:33:17;54.58;;;22.40;;
29934;SDS011;19905;53.370;-6.314;2022-12-11T04:35:46;58.15;;;22.10;;
29934;SDS011;19905;53.370;-6.314;2022-12-11T04:38:15;53.22;;;21.63;;
29934;SDS011;19905;53.370;-6.314;2022-12-11T04:40:43;51.72;;;21.52;;
29934;SDS011;19905;53.370;-6.314;2022-12-11T04:43:12;48.20;;;20.98;;
29934;SDS011;19905;53.370;-6.314;2022-12-11T04:45:41;45.42;;;21.75;;
29934;SDS011;19905;53.370;-6.314;2022-12-11T04:48:10;46.33;;;19.98;;
29934;SDS011;19905;53.370;-6.314;2022-12-11T04:50:40;46.78;;;20.30;;
29934;SDS011;19905;53.370;-6.314;2022-12-11T04:53:09;47.35;;;20.38;;
29934;SDS011;19905;53.370;-6.314;2022-12-11T04:55:38;46.03;;;20.20;;
29934;SDS011;19905;53.370;-6.314;2022-12-11T04:58:06;45.08;;;20.10;;
29934;SDS011;19905;53.370;-6.314;2022-12-11T05:00:35;48.67;;;20.75;;
29934;SDS011;19905;53.370;-6.314;2022-12-11T05:03:03;48.63;;;21.52;;
29934;SDS011;19905;53.370;-6.314;2022-12-11T05:05:32;47.35;;;21.15;;
29934;SDS011;19905;53.370;-6.314;2022-12-11T05:08:02;43.35;;;20.20;;
29934;SDS011;19905;53.370;-6.314;2022-12-11T05:10:32;43.65;;;18.95;;
29934;SDS011;19905;53.370;-6.314;2022-12-11T05:13:00;47.25;;;19.55;;
29934;SDS011;19905;53.370;-6.314;2022-12-11T05:15:29;43.75;;;19.90;;
29934;SDS011;19905;53.370;-6.314;2022-12-11T05:17:58;42.78;;;19.73;;
29934;SDS011;19905;53.370;-6.314;2022-12-11T05:20:26;51.13;;;20.38;;
29934;SDS011;19905;53.370;-6.314;2022-12-11T05:22:55;45.92;;;19.27;;
29934;SDS011;19905;53.370;-6.314;2022-12-11T05:25:25;51.25;;;20.10;;
29934;SDS011;19905;53.370;-6.314;2022-12-11T05:27:53;45.47;;;19.63;;
29934;SDS011;19905;53.370;-6.314;2022-12-11T05:30:22;41.45;;;18.10;;
29934;SDS011;19905;53.370;-6.314;2022-12-11T05:32:51;38.05;;;18.10;;
29934;SDS011;19905;53.370;-6.314;2022-12-11T05:35:20;35.67;;;16.92;;
29934;SDS011;19905;53.370;-6.314;2022-12-11T05:37:49;42.38;;;17.58;;
29934;SDS011;19905;53.370;-6.314;2022-12-11T05:40:17;35.22;;;16.25;;
29934;SDS011;19905;53.370;-6.314;2022-12-11T05:42:48;38.10;;;16.65;;
29934;SDS011;19905;53.370;-6.314;2022-12-11T05:45:17;33.60;;;15.48;;
29934;SDS011;19905;53.370;-6.314;2022-12-11T05:47:46;32.55;;;14.82;;
29934;SDS011;19905;53.370;-6.314;2022-12-11T05:50:15;31.98;;;14.80;;
29934;SDS011;19905;53.370;-6.314;2022-12-11T05:52:43;30.70;;;13.63;;
29934;SDS011;19905;53.370;-6.314;2022-12-11T05:55:12;34.72;;;15.07;;
29934;SDS011;19905;53.370;-6.314;2022-12-11T05:57:41;32.13;;;14.75;;
29934;SDS011;19905;53.370;-6.314;2022-12-11T06:00:12;30.40;;;14.05;;
29934;SDS011;19905;53.370;-6.314;2022-12-11T06:02:40;29.13;;;14.45;;
29934;SDS011;19905;53.370;-6.314;2022-12-11T06:05:10;34.28;;;14.70;;
29934;SDS011;19905;53.370;-6.314;2022-12-11T06:07:38;31.35;;;13.77;;
29934;SDS011;19905;53.370;-6.314;2022-12-11T06:10:08;28.45;;;12.90;;
29934;SDS011;19905;53.370;-6.314;2022-12-11T06:12:37;29.48;;;12.43;;
29934;SDS011;19905;53.370;-6.314;2022-12-11T06:15:06;28.27;;;13.05;;
29934;SDS011;19905;53.370;-6.314;2022-12-11T06:17:38;28.63;;;12.93;;
29934;SDS011;19905;53.370;-6.314;2022-12-11T06:20:07;38.72;;;17.00;;
29934;SDS011;19905;53.370;-6.314;2022-12-11T06:22:36;36.72;;;16.83;;
29934;SDS011;19905;53.370;-6.314;2022-12-11T06:25:05;40.38;;;17.67;;
29934;SDS011;19905;53.370;-6.314;2022-12-11T06:27:35;39.65;;;15.48;;
29934;SDS011;19905;53.370;-6.314;2022-12-11T06:30:04;33.35;;;15.02;;
29934;SDS011;19905;53.370;-6.314;2022-12-11T06:32:34;36.08;;;15.90;;
29934;SDS011;19905;53.370;-6.314;2022-12-11T06:35:05;32.50;;;14.82;;
29934;SDS011;19905;53.370;-6.314;2022-12-11T06:37:35;32.15;;;14.82;;
29934;SDS011;19905;53.370;-6.314;2022-12-11T06:40:06;30.13;;;14.35;;
29934;SDS011;19905;53.370;-6.314;2022-12-11T06:42:37;30.73;;;13.93;;
29934;SDS011;19905;53.370;-6.314;2022-12-11T06:45:06;31.08;;;13.63;;
29934;SDS011;19905;53.370;-6.314;2022-12-11T06:47:36;28.80;;;13.63;;
29934;SDS011;19905;53.370;-6.314;2022-12-11T06:50:07;29.75;;;14.07;;
29934;SDS011;19905;53.370;-6.314;2022-12-11T06:52:37;29.98;;;13.48;;
29934;SDS011;19905;53.370;-6.314;2022-12-11T06:55:06;26.83;;;13.30;;
29934;SDS011;19905;53.370;-6.314;2022-12-11T06:57:36;31.35;;;13.40;;
29934;SDS011;19905;53.370;-6.314;2022-12-11T07:00:05;31.02;;;13.68;;
29934;SDS011;19905;53.370;-6.314;2022-12-11T07:02:35;30.35;;;13.45;;
29934;SDS011;19905;53.370;-6.314;2022-12-11T07:05:04;30.58;;;12.68;;
29934;SDS011;19905;53.370;-6.314;2022-12-11T07:07:35;25.65;;;12.07;;
29934;SDS011;19905;53.370;-6.314;2022-12-11T07:10:03;29.80;;;12.43;;
29934;SDS011;19905;53.370;-6.314;2022-12-11T07:12:34;28.02;;;12.50;;
29934;SDS011;19905;53.370;-6.314;2022-12-11T07:15:03;26.13;;;11.75;;
29934;SDS011;19905;53.370;-6.314;2022-12-11T07:17:34;26.13;;;12.35;;
29934;SDS011;19905;53.370;-6.314;2022-12-11T07:20:03;23.65;;;11.13;;
29934;SDS011;19905;53.370;-6.314;2022-12-11T07:22:32;25.17;;;11.30;;
29934;SDS011;19905;53.370;-6.314;2022-12-11T07:25:02;21.13;;;9.98;;
29934;SDS011;19905;53.370;-6.314;2022-12-11T07:27:31;27.40;;;10.93;;
29934;SDS011;19905;53.370;-6.314;2022-12-11T07:30:00;22.92;;;10.98;;
29934;SDS011;19905;53.370;-6.314;2022-12-11T07:32:29;23.45;;;11.10;;
29934;SDS011;19905;53.370;-6.314;2022-12-11T07:34:58;24.27;;;11.65;;
29934;SDS011;19905;53.370;-6.314;2022-12-11T07:37:26;21.88;;;9.80;;
29934;SDS011;19905;53.370;-6.314;2022-12-11T07:39:55;23.98;;;11.20;;
29934;SDS011;19905;53.370;-6.314;2022-12-11T07:42:25;24.33;;;11.00;;
29934;SDS011;19905;53.370;-6.314;2022-12-11T07:44:55;22.98;;;10.95;;
29934;SDS011;19905;53.370;-6.314;2022-12-11T07:47:23;25.00;;;12.25;;
29934;SDS011;19905;53.370;-6.314;2022-12-11T07:49:52;23.85;;;10.57;;
29934;SDS011;19905;53.370;-6.314;2022-12-11T07:52:23;29.15;;;12.07;;
29934;SDS011;19905;53.370;-6.314;2022-12-11T07:54:54;23.80;;;10.55;;
29934;SDS011;19905;53.370;-6.314;2022-12-11T07:57:27;19.00;;;9.50;;
29934;SDS011;19905;53.370;-6.314;2022-12-11T08:00:20;19.15;;;9.30;;
29934;SDS011;19905;53.370;-6.314;2022-12-11T08:03:02;20.88;;;9.95;;
29934;SDS011;19905;53.370;-6.314;2022-12-11T08:05:32;17.83;;;9.05;;
29934;SDS011;19905;53.370;-6.314;2022-12-11T08:08:07;19.30;;;8.73;;
29934;SDS011;19905;53.370;-6.314;2022-12-11T08:10:43;19.27;;;9.07;;
29934;SDS011;19905;53.370;-6.314;2022-12-11T08:13:21;18.45;;;8.15;;
29934;SDS011;19905;53.370;-6.314;2022-12-11T08:16:05;16.52;;;8.52;;
29934;SDS011;19905;53.370;-6.314;2022-12-11T08:22:06;17.65;;;8.00;;
29934;SDS011;19905;53.370;-6.314;2022-12-11T08:29:32;13.40;;;7.55;;
29934;SDS011;19905;53.370;-6.314;2022-12-11T08:31:33;14.60;;;7.53;;
29934;SDS011;19905;53.370;-6.314;2022-12-11T08:36:43;15.30;;;7.60;;
29934;SDS011;19905;53.370;-6.314;2022-12-11T08:42:10;17.30;;;7.47;;
29934;SDS011;19905;53.370;-6.314;2022-12-11T08:47:51;19.45;;;8.40;;
29934;SDS011;19905;53.370;-6.314;2022-12-11T08:53:00;16.55;;;7.65;;
29934;SDS011;19905;53.370;-6.314;2022-12-11T08:55:49;16.33;;;7.93;;
29934;SDS011;19905;53.370;-6.314;2022-12-11T08:58:24;14.23;;;7.57;;
29934;SDS011;19905;53.370;-6.314;2022-12-11T09:10:22;17.02;;;8.10;;
29934;SDS011;19905;53.370;-6.314;2022-12-11T09:12:55;16.08;;;7.95;;
29934;SDS011;19905;53.370;-6.314;2022-12-11T09:15:42;17.17;;;7.95;;
29934;SDS011;19905;53.370;-6.314;2022-12-11T09:20:45;17.20;;;8.07;;
29934;SDS011;19905;53.370;-6.314;2022-12-11T09:23:17;18.40;;;9.05;;
29934;SDS011;19905;53.370;-6.314;2022-12-11T09:31:15;18.88;;;9.68;;
29934;SDS011;19905;53.370;-6.314;2022-12-11T09:33:47;20.08;;;10.70;;
29934;SDS011;19905;53.370;-6.314;2022-12-11T09:36:19;18.35;;;9.50;;
29934;SDS011;19905;53.370;-6.314;2022-12-11T09:38:47;18.27;;;8.95;;
29934;SDS011;19905;53.370;-6.314;2022-12-11T09:47:20;16.00;;;8.43;;
29934;SDS011;19905;53.370;-6.314;2022-12-11T09:52:34;17.73;;;8.10;;
29934;SDS011;19905;53.370;-6.314;2022-12-11T09:55:12;17.85;;;8.98;;
29934;SDS011;19905;53.370;-6.314;2022-12-11T09:57:47;19.90;;;10.20;;
29934;SDS011;19905;53.370;-6.314;2022-12-11T10:00:24;14.45;;;8.77;;
29934;SDS011;19905;53.370;-6.314;2022-12-11T10:06:14;17.30;;;8.25;;
29934;SDS011;19905;53.370;-6.314;2022-12-11T10:08:54;19.15;;;8.98;;
29934;SDS011;19905;53.370;-6.314;2022-12-11T10:11:39;18.60;;;8.70;;
29934;SDS011;19905;53.370;-6.314;2022-12-11T10:14:27;18.00;;;9.27;;
29934;SDS011;19905;53.370;-6.314;2022-12-11T10:17:09;22.35;;;9.25;;
29934;SDS011;19905;53.370;-6.314;2022-12-11T10:19:45;17.08;;;8.90;;
29934;SDS011;19905;53.370;-6.314;2022-12-11T10:22:17;18.58;;;9.30;;
29934;SDS011;19905;53.370;-6.314;2022-12-11T10:24:53;16.60;;;9.88;;
29934;SDS011;19905;53.370;-6.314;2022-12-11T10:30:19;17.45;;;9.70;;
29934;SDS011;19905;53.370;-6.314;2022-12-11T10:32:51;16.88;;;10.13;;
29934;SDS011;19905;53.370;-6.314;2022-12-11T10:35:28;19.30;;;9.88;;
29934;SDS011;19905;53.370;-6.314;2022-12-11T10:38:09;19.38;;;10.27;;
29934;SDS011;19905;53.370;-6.314;2022-12-11T10:43:33;21.63;;;11.27;;
29934;SDS011;19905;53.370;-6.314;2022-12-11T10:48:47;21.05;;;10.32;;
29934;SDS011;19905;53.370;-6.314;2022-12-11T10:51:24;24.15;;;10.57;;
29934;SDS011;19905;53.370;-6.314;2022-12-11T10:54:02;18.35;;;9.23;;
29934;SDS011;19905;53.370;-6.314;2022-12-11T10:56:36;21.42;;;10.13;;
29934;SDS011;19905;53.370;-6.314;2022-12-11T10:59:05;21.00;;;10.38;;
29934;SDS011;19905;53.370;-6.314;2022-12-11T11:01:34;21.23;;;10.27;;
29934;SDS011;19905;53.370;-6.314;2022-12-11T11:09:33;21.30;;;9.15;;
29934;SDS011;19905;53.370;-6.314;2022-12-11T11:12:14;16.60;;;9.52;;
29934;SDS011;19905;53.370;-6.314;2022-12-11T11:17:54;17.10;;;9.68;;
29934;SDS011;19905;53.370;-6.314;2022-12-11T11:20:26;24.30;;;12.43;;
29934;SDS011;19905;53.370;-6.314;2022-12-11T11:23:08;31.20;;;12.57;;
29934;SDS011;19905;53.370;-6.314;2022-12-11T11:25:48;16.20;;;8.57;;
29934;SDS011;19905;53.370;-6.314;2022-12-11T11:28:23;19.88;;;9.98;;
29934;SDS011;19905;53.370;-6.314;2022-12-11T11:30:58;14.60;;;8.50;;
29934;SDS011;19905;53.370;-6.314;2022-12-11T11:33:43;16.30;;;9.40;;
29934;SDS011;19905;53.370;-6.314;2022-12-11T11:36:21;16.23;;;8.70;;
29934;SDS011;19905;53.370;-6.314;2022-12-11T11:41:56;14.18;;;8.07;;
29934;SDS011;19905;53.370;-6.314;2022-12-11T11:44:35;14.25;;;8.25;;
29934;SDS011;19905;53.370;-6.314;2022-12-11T11:47:25;13.02;;;7.57;;
29934;SDS011;19905;53.370;-6.314;2022-12-11T11:55:48;14.15;;;8.18;;
29934;SDS011;19905;53.370;-6.314;2022-12-11T11:58:37;12.85;;;7.40;;
29934;SDS011;19905;53.370;-6.314;2022-12-11T12:10:40;16.65;;;7.97;;
29934;SDS011;19905;53.370;-6.314;2022-12-11T12:13:18;14.18;;;8.50;;
29934;SDS011;19905;53.370;-6.314;2022-12-11T12:16:19;16.50;;;8.88;;
29934;SDS011;19905;53.370;-6.314;2022-12-11T12:19:16;17.20;;;9.85;;
29934;SDS011;19905;53.370;-6.314;2022-12-11T12:21:59;19.70;;;10.52;;
29934;SDS011;19905;53.370;-6.314;2022-12-11T12:24:45;19.00;;;10.57;;
29934;SDS011;19905;53.370;-6.314;2022-12-11T12:27:33;20.27;;;10.40;;
29934;SDS011;19905;53.370;-6.314;2022-12-11T12:30:18;19.23;;;10.80;;
29934;SDS011;19905;53.370;-6.314;2022-12-11T12:32:59;17.77;;;10.00;;
29934;SDS011;19905;53.370;-6.314;2022-12-11T12:35:48;17.52;;;9.93;;
29934;SDS011;19905;53.370;-6.314;2022-12-11T12:38:29;19.20;;;10.15;;
29934;SDS011;19905;53.370;-6.314;2022-12-11T12:47:01;17.13;;;9.35;;
29934;SDS011;19905;53.370;-6.314;2022-12-11T12:49:36;17.23;;;9.95;;
29934;SDS011;19905;53.370;-6.314;2022-12-11T12:52:11;13.90;;;8.95;;
29934;SDS011;19905;53.370;-6.314;2022-12-11T12:57:45;15.00;;;8.45;;
29934;SDS011;19905;53.370;-6.314;2022-12-11T13:00:30;13.20;;;7.95;;
29934;SDS011;19905;53.370;-6.314;2022-12-11T13:05:54;22.73;;;11.90;;
29934;SDS011;19905;53.370;-6.314;2022-12-11T13:08:27;20.48;;;12.07;;
29934;SDS011;19905;53.370;-6.314;2022-12-11T13:11:02;23.15;;;12.07;;
29934;SDS011;19905;53.370;-6.314;2022-12-11T13:16:25;17.52;;;10.82;;
29934;SDS011;19905;53.370;-6.314;2022-12-11T13:19:15;17.13;;;10.63;;
29934;SDS011;19905;53.370;-6.314;2022-12-11T13:21:53;19.52;;;11.07;;
29934;SDS011;19905;53.370;-6.314;2022-12-11T13:24:28;29.88;;;15.10;;
29934;SDS011;19905;53.370;-6.314;2022-12-11T13:27:07;23.88;;;13.30;;
29934;SDS011;19905;53.370;-6.314;2022-12-11T13:29:40;27.20;;;14.85;;
29934;SDS011;19905;53.370;-6.314;2022-12-11T13:35:11;26.80;;;14.13;;
29934;SDS011;19905;53.370;-6.314;2022-12-11T13:37:54;27.17;;;15.40;;
29934;SDS011;19905;53.370;-6.314;2022-12-11T13:40:35;25.98;;;14.10;;
29934;SDS011;19905;53.370;-6.314;2022-12-11T13:43:17;26.98;;;14.35;;
29934;SDS011;19905;53.370;-6.314;2022-12-11T13:48:23;28.50;;;15.32;;
29934;SDS011;19905;53.370;-6.314;2022-12-11T13:51:04;29.60;;;15.88;;
29934;SDS011;19905;53.370;-6.314;2022-12-11T13:53:34;30.48;;;16.08;;
29934;SDS011;19905;53.370;-6.314;2022-12-11T13:56:04;33.97;;;16.83;;
29934;SDS011;19905;53.370;-6.314;2022-12-11T13:58:36;30.30;;;16.42;;
29934;SDS011;19905;53.370;-6.314;2022-12-11T14:01:14;27.55;;;15.07;;
29934;SDS011;19905;53.370;-6.314;2022-12-11T14:03:50;28.45;;;15.63;;
29934;SDS011;19905;53.370;-6.314;2022-12-11T14:09:04;28.30;;;14.82;;
29934;SDS011;19905;53.370;-6.314;2022-12-11T14:11:37;40.33;;;19.48;;
29934;SDS011;19905;53.370;-6.314;2022-12-11T14:14:15;46.80;;;21.95;;
29934;SDS011;19905;53.370;-6.314;2022-12-11T14:16:50;47.17;;;22.75;;
29934;SDS011;19905;53.370;-6.314;2022-12-11T14:22:18;51.58;;;23.60;;
29934;SDS011;19905;53.370;-6.314;2022-12-11T14:24:50;55.45;;;23.88;;
29934;SDS011;19905;53.370;-6.314;2022-12-11T14:27:23;55.20;;;22.45;;
29934;SDS011;19905;53.370;-6.314;2022-12-11T14:29:54;60.30;;;24.38;;
29934;SDS011;19905;53.370;-6.314;2022-12-11T14:32:34;61.35;;;23.00;;
29934;SDS011;19905;53.370;-6.314;2022-12-11T14:35:16;100.57;;;24.15;;
29934;SDS011;19905;53.370;-6.314;2022-12-11T14:38:06;61.28;;;22.65;;
29934;SDS011;19905;53.370;-6.314;2022-12-11T14:43:29;52.90;;;21.42;;
29934;SDS011;19905;53.370;-6.314;2022-12-11T14:46:05;48.40;;;21.98;;
29934;SDS011;19905;53.370;-6.314;2022-12-11T14:48:51;48.60;;;21.98;;
29934;SDS011;19905;53.370;-6.314;2022-12-11T14:51:27;50.85;;;22.33;;
29934;SDS011;19905;53.370;-6.314;2022-12-11T14:53:57;46.55;;;21.63;;
29934;SDS011;19905;53.370;-6.314;2022-12-11T14:56:28;48.35;;;22.05;;
29934;SDS011;19905;53.370;-6.314;2022-12-11T14:58:59;47.65;;;21.20;;
29934;SDS011;19905;53.370;-6.314;2022-12-11T15:01:30;42.80;;;19.88;;
29934;SDS011;19905;53.370;-6.314;2022-12-11T15:04:05;50.83;;;22.88;;
29934;SDS011;19905;53.370;-6.314;2022-12-11T15:06:53;49.70;;;23.30;;
29934;SDS011;19905;53.370;-6.314;2022-12-11T15:09:24;51.53;;;23.55;;
29934;SDS011;19905;53.370;-6.314;2022-12-11T15:12:07;55.42;;;26.33;;
29934;SDS011;19905;53.370;-6.314;2022-12-11T15:14:48;63.38;;;28.02;;
29934;SDS011;19905;53.370;-6.314;2022-12-11T15:17:20;57.53;;;27.38;;
29934;SDS011;19905;53.370;-6.314;2022-12-11T15:19:54;54.60;;;26.67;;
29934;SDS011;19905;53.370;-6.314;2022-12-11T15:22:29;52.55;;;24.92;;
29934;SDS011;19905;53.370;-6.314;2022-12-11T15:24:59;53.55;;;25.38;;
29934;SDS011;19905;53.370;-6.314;2022-12-11T15:27:29;49.83;;;25.33;;
29934;SDS011;19905;53.370;-6.314;2022-12-11T15:30:01;47.97;;;26.13;;
29934;SDS011;19905;53.370;-6.314;2022-12-11T15:32:41;53.38;;;25.67;;
29934;SDS011;19905;53.370;-6.314;2022-12-11T15:35:21;56.53;;;25.55;;
29934;SDS011;19905;53.370;-6.314;2022-12-11T15:37:52;56.92;;;25.45;;
29934;SDS011;19905;53.370;-6.314;2022-12-11T15:40:22;50.47;;;25.67;;
29934;SDS011;19905;53.370;-6.314;2022-12-11T15:42:52;47.30;;;23.50;;
29934;SDS011;19905;53.370;-6.314;2022-12-11T15:45:23;55.70;;;25.58;;
29934;SDS011;19905;53.370;-6.314;2022-12-11T15:47:54;53.08;;;25.25;;
29934;SDS011;19905;53.370;-6.314;2022-12-11T15:50:27;57.95;;;25.88;;
29934;SDS011;19905;53.370;-6.314;2022-12-11T15:52:57;56.80;;;25.83;;
29934;SDS011;19905;53.370;-6.314;2022-12-11T15:55:26;58.60;;;24.95;;
29934;SDS011;19905;53.370;-6.314;2022-12-11T15:58:00;58.42;;;27.35;;
29934;SDS011;19905;53.370;-6.314;2022-12-11T16:00:33;64.28;;;27.17;;
29934;SDS011;19905;53.370;-6.314;2022-12-11T16:03:04;68.63;;;28.48;;
29934;SDS011;19905;53.370;-6.314;2022-12-11T16:05:36;75.57;;;31.40;;
29934;SDS011;19905;53.370;-6.314;2022-12-11T16:08:08;72.30;;;29.23;;
29934;SDS011;19905;53.370;-6.314;2022-12-11T16:10:43;103.53;;;33.85;;
29934;SDS011;19905;53.370;-6.314;2022-12-11T16:13:15;71.38;;;28.70;;
29934;SDS011;19905;53.370;-6.314;2022-12-11T16:15:45;70.45;;;28.05;;
29934;SDS011;19905;53.370;-6.314;2022-12-11T16:18:28;69.28;;;27.45;;
29934;SDS011;19905;53.370;-6.314;2022-12-11T16:21:02;88.10;;;32.15;;
29934;SDS011;19905;53.370;-6.314;2022-12-11T16:26:10;82.63;;;28.38;;
29934;SDS011;19905;53.370;-6.314;2022-12-11T16:34:23;74.88;;;29.02;;
29934;SDS011;19905;53.370;-6.314;2022-12-11T16:36:57;80.22;;;32.15;;
29934;SDS011;19905;53.370;-6.314;2022-12-11T16:39:27;65.68;;;29.45;;
29934;SDS011;19905;53.370;-6.314;2022-12-11T16:41:58;69.32;;;28.33;;
29934;SDS011;19905;53.370;-6.314;2022-12-11T16:48:16;69.40;;;25.35;;
29934;SDS011;19905;53.370;-6.314;2022-12-11T16:50:52;59.90;;;25.90;;
29934;SDS011;19905;53.370;-6.314;2022-12-11T16:53:24;66.70;;;26.67;;
29934;SDS011;19905;53.370;-6.314;2022-12-11T17:01:08;63.80;;;26.15;;
29934;SDS011;19905;53.370;-6.314;2022-12-11T17:03:44;84.15;;;27.13;;